createdAt,value
2022-08-20T00:01:11.722Z,16.50
2022-08-20T00:03:41.333Z,16.50
2022-08-20T00:06:18.629Z,16.40
2022-08-20T00:08:46.522Z,16.40
2022-08-20T00:11:23.405Z,16.40
2022-08-20T00:13:54.987Z,16.40
2022-08-20T00:16:23.686Z,16.40
2022-08-20T00:18:51.063Z,16.40
2022-08-20T00:21:19.672Z,16.40
2022-08-20T00:23:49.475Z,16.40
2022-08-20T00:26:18.190Z,16.40
2022-08-20T00:28:45.227Z,16.30
2022-08-20T00:31:14.444Z,16.40
2022-08-20T00:33:41.440Z,16.30
2022-08-20T00:36:10.754Z,16.40
2022-08-20T00:38:39.574Z,16.40
2022-08-20T00:41:09.343Z,16.40
2022-08-20T00:43:41.983Z,16.40
2022-08-20T00:46:14.829Z,16.40
2022-08-20T00:48:45.102Z,16.40
2022-08-20T00:51:30.051Z,16.30
2022-08-20T00:54:08.672Z,16.30
2022-08-20T00:56:36.745Z,16.30
2022-08-20T00:59:11.403Z,16.30
2022-08-20T01:01:55.861Z,16.30
2022-08-20T01:04:26.408Z,16.30
2022-08-20T01:06:54.023Z,16.30
2022-08-20T01:09:49.613Z,16.30
2022-08-20T01:12:10.347Z,16.30
2022-08-20T01:14:43.996Z,16.30
2022-08-20T01:17:16.321Z,16.20
2022-08-20T01:20:01.355Z,16.30
2022-08-20T01:23:01.795Z,16.30
2022-08-20T01:25:53.573Z,16.40
2022-08-20T01:28:28.998Z,16.40
2022-08-20T01:30:56.412Z,16.40
2022-08-20T01:33:24.080Z,16.40
2022-08-20T01:35:52.905Z,16.40
2022-08-20T01:38:20.020Z,16.50
2022-08-20T01:41:06.657Z,16.50
2022-08-20T01:43:37.202Z,16.50
2022-08-20T01:46:05.026Z,16.50
2022-08-20T01:48:32.714Z,16.40
2022-08-20T01:51:10.984Z,16.40
2022-08-20T01:53:41.708Z,16.40
2022-08-20T01:56:11.988Z,16.40
2022-08-20T01:58:41.910Z,16.40
2022-08-20T02:01:29.842Z,16.30
2022-08-20T02:03:57.118Z,16.30
2022-08-20T02:06:25.737Z,16.40
2022-08-20T02:09:00.067Z,16.40
2022-08-20T02:11:29.485Z,16.40
2022-08-20T02:13:58.102Z,16.40
2022-08-20T02:16:37.404Z,16.40
2022-08-20T02:19:11.514Z,16.50
2022-08-20T02:21:43.553Z,16.50
2022-08-20T02:24:10.697Z,16.50
2022-08-20T02:26:38.317Z,16.50
2022-08-20T02:29:10.756Z,16.40
2022-08-20T02:31:43.600Z,16.40
2022-08-20T02:34:26.516Z,16.40
2022-08-20T02:36:54.173Z,16.40
2022-08-20T02:39:21.096Z,16.30
2022-08-20T02:41:50.035Z,16.30
2022-08-20T02:44:20.509Z,16.30
2022-08-20T02:46:50.052Z,16.30
2022-08-20T02:49:18.412Z,16.30
2022-08-20T02:51:45.875Z,16.30
2022-08-20T02:54:13.820Z,16.30
2022-08-20T02:56:40.769Z,16.30
2022-08-20T02:59:08.051Z,16.30
2022-08-20T03:01:37.850Z,16.30
2022-08-20T03:04:05.359Z,16.30
2022-08-20T03:06:32.603Z,16.30
2022-08-20T03:08:59.475Z,16.30
2022-08-20T03:11:26.517Z,16.30
2022-08-20T03:13:53.414Z,16.30
2022-08-20T03:16:20.342Z,16.30
2022-08-20T03:18:47.920Z,16.30
2022-08-20T03:21:19.016Z,16.30
2022-08-20T03:23:46.110Z,16.30
2022-08-20T03:26:14.101Z,16.30
2022-08-20T03:28:42.256Z,16.40
2022-08-20T03:31:09.356Z,16.40
2022-08-20T03:33:36.713Z,16.40
2022-08-20T03:36:07.820Z,16.40
2022-08-20T03:38:34.867Z,16.50
2022-08-20T03:41:02.914Z,16.50
2022-08-20T03:43:30.369Z,16.60
2022-08-20T03:45:57.350Z,16.60
2022-08-20T03:48:24.278Z,16.70
2022-08-20T03:50:51.343Z,16.60
2022-08-20T03:53:19.204Z,16.70
2022-08-20T03:55:54.186Z,16.60
2022-08-20T03:58:32.811Z,16.60
2022-08-20T04:01:05.316Z,16.70
2022-08-20T04:03:32.424Z,16.70
2022-08-20T04:05:59.694Z,16.70
2022-08-20T04:08:29.442Z,16.70
2022-08-20T04:10:58.074Z,16.80
2022-08-20T04:13:27.466Z,16.80
2022-08-20T04:15:57.705Z,16.80
2022-08-20T04:18:26.299Z,16.90
2022-08-20T04:20:54.124Z,16.90
2022-08-20T04:23:22.074Z,17.00
2022-08-20T04:25:49.647Z,17.00
2022-08-20T04:28:30.112Z,17.10
2022-08-20T04:30:59.279Z,17.20
2022-08-20T04:33:34.002Z,17.20
2022-08-20T04:36:05.633Z,17.20
2022-08-20T04:38:49.908Z,17.20
2022-08-20T04:41:23.475Z,17.20
2022-08-20T04:43:54.173Z,17.20
2022-08-20T04:46:23.594Z,17.40
2022-08-20T04:48:50.784Z,17.30
2022-08-20T04:51:18.371Z,17.30
2022-08-20T04:53:52.083Z,17.40
2022-08-20T04:56:25.995Z,17.30
2022-08-20T04:58:55.380Z,17.30
2022-08-20T05:01:23.843Z,17.40
2022-08-20T05:03:54.812Z,17.40
2022-08-20T05:06:25.448Z,17.40
2022-08-20T05:08:53.724Z,17.40
2022-08-20T05:11:33.774Z,17.40
2022-08-20T05:14:08.994Z,17.40
2022-08-20T05:16:40.358Z,17.50
2022-08-20T05:19:10.147Z,17.50
2022-08-20T05:21:37.717Z,17.60
2022-08-20T05:24:05.692Z,17.70
2022-08-20T05:26:33.397Z,17.70
2022-08-20T05:29:00.332Z,17.70
2022-08-20T05:31:31.016Z,17.80
2022-08-20T05:34:00.802Z,17.90
2022-08-20T05:36:27.710Z,17.90
2022-08-20T05:38:54.742Z,18.00
2022-08-20T05:41:29.456Z,18.00
2022-08-20T05:44:00.639Z,18.10
2022-08-20T05:46:28.156Z,18.20
2022-08-20T05:48:55.033Z,18.20
2022-08-20T05:51:27.028Z,18.30
2022-08-20T05:53:53.888Z,18.40
2022-08-20T05:56:26.642Z,18.40
2022-08-20T05:58:54.242Z,18.50
2022-08-20T06:01:21.335Z,18.60
2022-08-20T06:04:06.843Z,18.60
2022-08-20T06:06:44.584Z,18.60
2022-08-20T06:09:12.875Z,18.60
2022-08-20T06:11:39.820Z,18.70
2022-08-20T06:14:06.680Z,18.70
2022-08-20T06:16:33.727Z,18.80
2022-08-20T06:19:02.862Z,18.80
2022-08-20T06:21:30.052Z,18.90
2022-08-20T06:24:01.361Z,19.20
2022-08-20T06:26:30.415Z,19.80
2022-08-20T06:29:02.127Z,20.40
2022-08-20T06:31:29.247Z,20.80
2022-08-20T06:33:56.260Z,21.40
2022-08-20T06:36:24.914Z,22.00
2022-08-20T06:38:51.921Z,22.40
2022-08-20T06:41:18.838Z,22.70
2022-08-20T06:43:46.564Z,22.90
2022-08-20T06:46:14.598Z,22.80
2022-08-20T06:48:41.548Z,23.10
2022-08-20T06:51:09.800Z,23.40
2022-08-20T06:53:36.960Z,23.40
2022-08-20T06:56:04.532Z,23.50
2022-08-20T06:58:38.244Z,23.60
2022-08-20T07:01:11.531Z,23.40
2022-08-20T07:03:55.111Z,23.40
2022-08-20T07:06:25.414Z,23.10
2022-08-20T07:08:53.479Z,22.70
2022-08-20T07:11:26.516Z,22.70
2022-08-20T07:13:54.218Z,22.70
2022-08-20T07:16:21.259Z,23.00
2022-08-20T07:18:48.310Z,23.20
2022-08-20T07:21:17.525Z,23.30
2022-08-20T07:23:44.741Z,23.40
2022-08-20T07:26:12.967Z,23.50
2022-08-20T07:28:39.968Z,23.40
2022-08-20T07:31:25.882Z,23.10
2022-08-20T07:33:54.136Z,22.80
2022-08-20T07:36:21.092Z,22.40
2022-08-20T07:38:50.940Z,22.40
2022-08-20T07:41:18.674Z,22.80
2022-08-20T07:43:46.533Z,22.90
2022-08-20T07:46:20.880Z,23.00
2022-08-20T07:48:50.245Z,23.10
2022-08-20T07:51:22.371Z,23.10
2022-08-20T07:53:51.605Z,23.30
2022-08-20T07:56:22.763Z,23.50
2022-08-20T07:58:55.267Z,23.70
2022-08-20T08:01:29.633Z,23.50
2022-08-20T08:03:57.749Z,23.50
2022-08-20T08:06:29.437Z,23.50
2022-08-20T08:09:13.951Z,23.60
2022-08-20T08:11:50.024Z,23.80
2022-08-20T08:14:23.673Z,24.20
2022-08-20T08:16:52.953Z,24.60
2022-08-20T08:19:20.315Z,24.90
2022-08-20T08:21:47.203Z,25.30
2022-08-20T08:24:19.967Z,25.10
2022-08-20T08:26:50.213Z,25.60
2022-08-20T08:29:17.287Z,26.20
2022-08-20T08:31:44.497Z,26.60
2022-08-20T08:34:11.712Z,26.80
2022-08-20T08:36:39.341Z,27.30
2022-08-20T08:39:06.745Z,27.70
2022-08-20T08:41:41.935Z,28.10
2022-08-20T08:44:21.816Z,27.70
2022-08-20T08:47:03.161Z,27.00
2022-08-20T08:49:38.182Z,26.40
2022-08-20T08:52:25.411Z,26.00
2022-08-20T08:54:58.488Z,25.60
2022-08-20T08:57:26.065Z,25.40
2022-08-20T09:00:12.238Z,25.10
2022-08-20T09:02:39.406Z,25.50
2022-08-20T09:05:16.043Z,26.20
2022-08-20T09:07:48.413Z,26.60
2022-08-20T09:10:15.311Z,27.10
2022-08-20T09:12:47.126Z,27.70
2022-08-20T09:15:14.813Z,28.10
2022-08-20T09:17:41.880Z,28.30
2022-08-20T09:20:10.563Z,28.50
2022-08-20T09:22:37.459Z,28.60
2022-08-20T09:25:05.618Z,28.70
2022-08-20T09:27:32.802Z,28.60
2022-08-20T09:29:59.670Z,28.90
2022-08-20T09:32:27.225Z,28.80
2022-08-20T09:34:56.542Z,29.00
2022-08-20T09:37:25.739Z,28.90
2022-08-20T09:39:52.849Z,28.60
2022-08-20T09:42:28.729Z,28.30
2022-08-20T09:44:55.911Z,28.20
2022-08-20T09:47:22.959Z,28.50
2022-08-20T09:49:49.871Z,28.90
2022-08-20T09:52:38.946Z,28.70
2022-08-20T09:55:26.656Z,28.80
2022-08-20T09:57:53.956Z,28.10
2022-08-20T10:00:21.350Z,27.60
2022-08-20T10:02:48.365Z,27.50
2022-08-20T10:05:16.987Z,27.70
2022-08-20T10:07:43.883Z,27.80
2022-08-20T10:10:15.456Z,28.00
2022-08-20T10:12:43.097Z,28.00
2022-08-20T10:15:10.994Z,27.80
2022-08-20T10:17:39.628Z,27.80
2022-08-20T10:20:08.562Z,27.70
2022-08-20T10:22:35.730Z,28.00
2022-08-20T10:25:02.688Z,27.60
2022-08-20T10:27:29.635Z,27.50
2022-08-20T10:29:56.527Z,27.40
2022-08-20T10:32:23.650Z,27.30
2022-08-20T10:34:50.561Z,27.50
2022-08-20T10:37:20.374Z,27.10
2022-08-20T10:39:47.798Z,27.00
2022-08-20T10:42:14.867Z,27.20
2022-08-20T10:44:42.032Z,27.50
2022-08-20T10:47:15.264Z,27.70
2022-08-20T10:49:42.327Z,27.40
2022-08-20T10:52:09.273Z,27.50
2022-08-20T10:54:36.243Z,27.10
2022-08-20T10:57:04.312Z,26.70
2022-08-20T10:59:31.298Z,26.60
2022-08-20T11:01:58.314Z,26.40
2022-08-20T11:04:25.235Z,26.20
2022-08-20T11:06:52.182Z,26.40
2022-08-20T11:09:19.108Z,26.60
2022-08-20T11:11:45.970Z,26.70
2022-08-20T11:14:12.842Z,27.00
2022-08-20T11:16:39.693Z,27.10
2022-08-20T11:19:06.586Z,27.00
2022-08-20T11:21:33.446Z,27.20
2022-08-20T11:24:02.895Z,27.10
2022-08-20T11:26:30.181Z,26.70
2022-08-20T11:28:57.106Z,26.50
2022-08-20T11:31:24.153Z,26.40
2022-08-20T11:33:51.122Z,26.60
2022-08-20T11:36:18.059Z,26.60
2022-08-20T11:38:44.909Z,26.50
2022-08-20T11:41:11.760Z,26.90
2022-08-20T11:43:38.617Z,27.40
2022-08-20T11:46:05.708Z,27.80
2022-08-20T11:48:32.541Z,28.00
2022-08-20T11:50:59.457Z,27.60
2022-08-20T11:53:26.416Z,27.30
2022-08-20T11:55:53.364Z,27.30
2022-08-20T11:58:20.602Z,27.50
2022-08-20T12:00:47.611Z,27.70
2022-08-20T12:03:14.799Z,27.60
2022-08-20T12:05:44.283Z,27.70
2022-08-20T12:08:27.304Z,27.30
2022-08-20T12:10:59.287Z,27.20
2022-08-20T12:13:30.757Z,27.40
2022-08-20T12:16:15.119Z,27.30
2022-08-20T12:18:42.060Z,27.70
2022-08-20T12:21:08.957Z,27.80
2022-08-20T12:23:35.803Z,27.60
2022-08-20T12:26:03.382Z,27.60
2022-08-20T12:28:31.101Z,27.60
2022-08-20T12:30:58.666Z,27.50
2022-08-20T12:33:26.184Z,27.40
2022-08-20T12:35:53.183Z,27.20
2022-08-20T12:38:20.145Z,27.20
2022-08-20T12:40:47.207Z,27.10
2022-08-20T12:43:14.214Z,27.10
2022-08-20T12:45:41.731Z,26.40
2022-08-20T12:48:13.218Z,26.20
2022-08-20T12:50:43.058Z,26.30
2022-08-20T12:53:10.907Z,26.20
2022-08-20T12:55:38.327Z,25.90
2022-08-20T12:58:08.787Z,25.70
2022-08-20T13:00:50.337Z,25.50
2022-08-20T13:03:19.801Z,25.30
2022-08-20T13:05:46.969Z,25.20
2022-08-20T13:08:14.222Z,25.20
2022-08-20T13:10:44.480Z,25.30
2022-08-20T13:13:13.049Z,25.50
2022-08-20T13:15:40.008Z,25.70
2022-08-20T13:18:08.112Z,25.60
2022-08-20T13:20:35.391Z,25.60
2022-08-20T13:23:04.426Z,25.60
2022-08-20T13:25:31.948Z,25.70
2022-08-20T13:28:00.713Z,25.60
2022-08-20T13:30:27.725Z,25.60
2022-08-20T13:32:54.980Z,25.70
2022-08-20T13:35:21.955Z,25.70
2022-08-20T13:37:50.689Z,25.90
2022-08-20T13:40:18.571Z,26.10
2022-08-20T13:42:45.772Z,26.40
2022-08-20T13:45:12.671Z,26.40
2022-08-20T13:47:41.981Z,26.30
2022-08-20T13:50:16.494Z,26.30
2022-08-20T13:52:44.587Z,26.60
2022-08-20T13:55:15.572Z,26.70
2022-08-20T13:57:43.765Z,26.60
2022-08-20T14:00:19.630Z,26.10
2022-08-20T14:02:46.826Z,26.10
2022-08-20T14:05:14.300Z,25.60
2022-08-20T14:07:47.227Z,25.50
2022-08-20T14:10:18.831Z,25.50
2022-08-20T14:12:46.474Z,25.60
2022-08-20T14:15:13.622Z,25.70
2022-08-20T14:17:43.042Z,25.70
2022-08-20T14:20:14.211Z,25.80
2022-08-20T14:22:42.424Z,26.00
2022-08-20T14:25:11.367Z,26.10
2022-08-20T14:27:38.950Z,26.20
2022-08-20T14:30:09.057Z,26.40
2022-08-20T14:32:36.235Z,26.20
2022-08-20T14:35:03.779Z,26.00
2022-08-20T14:37:33.356Z,25.90
2022-08-20T14:40:02.379Z,25.70
2022-08-20T14:42:29.963Z,25.40
2022-08-20T14:44:58.678Z,25.40
2022-08-20T14:47:31.807Z,25.50
2022-08-20T14:50:02.577Z,25.50
2022-08-20T14:52:36.367Z,25.60
2022-08-20T14:55:08.874Z,25.50
2022-08-20T14:57:35.928Z,25.40
2022-08-20T15:00:04.450Z,25.40
2022-08-20T15:02:31.323Z,25.30
2022-08-20T15:04:58.181Z,25.10
2022-08-20T15:07:26.759Z,25.10
2022-08-20T15:09:55.111Z,25.00
2022-08-20T15:12:22.801Z,24.80
2022-08-20T15:14:50.341Z,25.00
2022-08-20T15:17:23.011Z,25.00
2022-08-20T15:19:50.061Z,24.80
2022-08-20T15:22:17.935Z,24.70
2022-08-20T15:24:44.927Z,24.70
2022-08-20T15:27:25.462Z,24.80
2022-08-20T15:29:53.830Z,24.90
2022-08-20T15:32:21.531Z,24.80
2022-08-20T15:34:49.254Z,24.60
2022-08-20T15:37:22.114Z,24.40
2022-08-20T15:39:50.663Z,24.30
2022-08-20T15:42:19.265Z,24.30
2022-08-20T15:44:46.852Z,24.10
2022-08-20T15:47:16.741Z,24.00
2022-08-20T15:49:44.964Z,24.10
2022-08-20T15:52:12.713Z,24.20
2022-08-20T15:54:40.160Z,24.10
2022-08-20T15:57:25.591Z,24.00
2022-08-20T15:59:58.938Z,23.90
2022-08-20T16:02:54.014Z,23.90
2022-08-20T16:06:15.291Z,23.90
2022-08-20T16:08:44.883Z,23.90
2022-08-20T16:11:24.703Z,23.70
2022-08-20T16:13:59.895Z,23.60
2022-08-20T16:16:32.624Z,23.50
2022-08-20T16:19:00.476Z,23.50
2022-08-20T16:21:36.801Z,23.40
2022-08-20T16:24:12.873Z,23.20
2022-08-20T16:27:05.341Z,23.20
2022-08-20T16:29:51.421Z,23.20
2022-08-20T16:32:35.204Z,23.00
2022-08-20T16:35:30.590Z,23.10
2022-08-20T16:38:03.671Z,23.10
2022-08-20T16:41:05.445Z,23.00
2022-08-20T16:43:39.861Z,22.90
2022-08-20T16:46:17.006Z,22.90
2022-08-20T16:48:59.888Z,22.70
2022-08-20T16:51:52.074Z,22.50
2022-08-20T16:54:30.678Z,22.60
2022-08-20T16:57:01.845Z,22.60
2022-08-20T16:59:29.241Z,22.50
2022-08-20T17:02:10.623Z,22.50
2022-08-20T17:04:59.217Z,22.50
2022-08-20T17:07:49.432Z,22.40
2022-08-20T17:10:26.728Z,22.50
2022-08-20T17:12:59.948Z,22.40
2022-08-20T17:15:30.323Z,22.30
2022-08-20T17:17:57.541Z,22.30
2022-08-20T17:20:28.183Z,22.20
2022-08-20T17:23:11.100Z,22.10
2022-08-20T17:25:38.508Z,21.90
2022-08-20T17:28:23.260Z,21.80
2022-08-20T17:30:51.117Z,21.70
2022-08-20T17:33:39.316Z,21.80
2022-08-20T17:36:17.098Z,21.70
2022-08-20T17:38:52.607Z,21.70
2022-08-20T17:41:35.746Z,21.60
2022-08-20T17:44:09.530Z,21.60
2022-08-20T17:46:44.174Z,21.70
2022-08-20T17:49:15.093Z,21.60
2022-08-20T17:51:53.059Z,21.40
2022-08-20T17:54:30.626Z,21.30
2022-08-20T17:57:03.493Z,21.10
2022-08-20T18:00:01.232Z,21.00
2022-08-20T18:02:22.549Z,21.00
2022-08-20T18:04:50.626Z,20.90
2022-08-20T18:07:32.968Z,21.00
2022-08-20T18:10:18.350Z,20.80
2022-08-20T18:13:03.743Z,20.70
2022-08-20T18:15:55.333Z,20.70
2022-08-20T18:18:35.824Z,20.50
2022-08-20T18:21:19.813Z,20.50
2022-08-20T18:24:00.288Z,20.40
2022-08-20T18:26:33.092Z,20.30
2022-08-20T18:29:08.021Z,20.20
2022-08-20T18:31:53.227Z,20.20
2022-08-20T18:34:39.405Z,20.30
2022-08-20T18:37:25.392Z,20.20
2022-08-20T18:39:53.110Z,20.10
2022-08-20T18:42:37.486Z,19.90
2022-08-20T18:45:06.041Z,19.70
2022-08-20T18:47:32.841Z,19.70
2022-08-20T18:50:18.443Z,19.60
2022-08-20T18:52:49.359Z,19.50
2022-08-20T18:55:37.482Z,19.40
2022-08-20T18:58:07.897Z,19.30
2022-08-20T19:00:46.212Z,19.30
2022-08-20T19:03:19.175Z,19.30
2022-08-20T19:05:46.099Z,19.30
2022-08-20T19:08:17.194Z,19.20
2022-08-20T19:10:56.564Z,19.10
2022-08-20T19:13:54.046Z,19.00
2022-08-20T19:16:43.717Z,18.80
2022-08-20T19:19:20.187Z,18.70
2022-08-20T19:21:47.520Z,18.60
2022-08-20T19:24:19.226Z,18.60
2022-08-20T19:26:55.006Z,18.50
2022-08-20T19:29:49.886Z,18.50
2022-08-20T19:32:29.343Z,18.40
2022-08-20T19:34:59.598Z,18.40
2022-08-20T19:37:38.578Z,18.40
2022-08-20T19:40:30.875Z,18.30
2022-08-20T19:43:00.486Z,18.40
2022-08-20T19:45:29.605Z,18.30
2022-08-20T19:48:09.273Z,18.30
2022-08-20T19:50:52.447Z,18.20
2022-08-20T19:53:30.320Z,18.20
2022-08-20T19:56:23.086Z,18.10
2022-08-20T19:59:08.466Z,17.90
2022-08-20T20:01:36.003Z,17.90
2022-08-20T20:04:07.821Z,17.80
2022-08-20T20:06:44.450Z,17.80
2022-08-20T20:09:27.943Z,17.70
2022-08-20T20:12:02.804Z,17.60
2022-08-20T20:14:36.027Z,17.50
2022-08-20T20:17:08.576Z,17.50
2022-08-20T20:19:56.843Z,17.40
2022-08-20T20:22:30.742Z,17.40
2022-08-20T20:25:27.130Z,17.40
2022-08-20T20:27:57.394Z,17.30
2022-08-20T20:30:30.023Z,17.30
2022-08-20T20:32:59.349Z,17.20
2022-08-20T20:35:34.344Z,17.20
2022-08-20T20:38:11.331Z,17.10
2022-08-20T20:40:54.536Z,17.10
2022-08-20T20:43:42.301Z,17.00
2022-08-20T20:46:23.431Z,16.90
2022-08-20T20:49:13.653Z,16.80
2022-08-20T20:51:51.867Z,16.80
2022-08-20T20:54:44.235Z,16.80
2022-08-20T20:57:38.286Z,16.80
2022-08-20T21:00:13.694Z,16.80
2022-08-20T21:02:41.171Z,16.60
2022-08-20T21:05:08.704Z,16.50
2022-08-20T21:07:45.428Z,16.50
2022-08-20T21:10:19.602Z,16.40
2022-08-20T21:12:50.543Z,16.40
2022-08-20T21:15:20.206Z,16.40
2022-08-20T21:17:47.186Z,16.30
2022-08-20T21:20:14.192Z,16.30
2022-08-20T21:22:41.176Z,16.30
2022-08-20T21:25:08.535Z,16.30
2022-08-20T21:27:35.873Z,16.30
2022-08-20T21:30:04.538Z,16.20
2022-08-20T21:32:31.473Z,16.20
2022-08-20T21:34:58.746Z,16.20
2022-08-20T21:37:25.689Z,16.10
2022-08-20T21:39:52.671Z,16.00
2022-08-20T21:42:29.085Z,16.10
2022-08-20T21:44:58.004Z,16.20
2022-08-20T21:47:25.671Z,16.10
2022-08-20T21:49:53.040Z,16.00
2022-08-20T21:52:20.023Z,15.90
2022-08-20T21:54:46.927Z,16.00
2022-08-20T21:57:19.669Z,16.00
2022-08-20T21:59:46.789Z,16.00
2022-08-20T22:02:13.697Z,16.00
2022-08-20T22:04:41.138Z,15.90
2022-08-20T22:07:08.318Z,15.80
2022-08-20T22:09:36.464Z,15.80
2022-08-20T22:12:05.335Z,15.80
2022-08-20T22:14:32.626Z,15.80
2022-08-20T22:16:59.535Z,15.80
2022-08-20T22:19:26.419Z,15.80
2022-08-20T22:21:54.757Z,15.70
2022-08-20T22:24:23.085Z,15.70
2022-08-20T22:26:50.012Z,15.70
2022-08-20T22:29:16.911Z,15.70
2022-08-20T22:31:44.187Z,15.70
2022-08-20T22:34:13.117Z,15.70
2022-08-20T22:36:41.596Z,15.80
2022-08-20T22:39:08.999Z,15.70
2022-08-20T22:41:36.029Z,15.60
2022-08-20T22:44:03.144Z,15.60
2022-08-20T22:46:36.014Z,15.70
2022-08-20T22:49:05.131Z,15.60
2022-08-20T22:51:34.974Z,15.70
2022-08-20T22:54:04.337Z,15.60
2022-08-20T22:56:31.698Z,15.70
2022-08-20T22:58:59.313Z,15.70
2022-08-20T23:01:27.564Z,15.70
2022-08-20T23:03:57.286Z,15.70
2022-08-20T23:06:26.262Z,15.70
2022-08-20T23:08:53.129Z,15.60
2022-08-20T23:11:19.979Z,15.70
2022-08-20T23:13:46.857Z,15.70
2022-08-20T23:16:14.252Z,15.70
2022-08-20T23:18:41.264Z,15.70
2022-08-20T23:21:08.149Z,15.60
2022-08-20T23:23:35.531Z,15.60
2022-08-20T23:26:02.585Z,15.50
2022-08-20T23:28:29.603Z,15.50
2022-08-20T23:30:56.515Z,15.50
2022-08-20T23:33:23.495Z,15.50
2022-08-20T23:35:50.591Z,15.50
2022-08-20T23:38:17.700Z,15.50
2022-08-20T23:40:44.587Z,15.30
2022-08-20T23:43:11.465Z,15.40
2022-08-20T23:45:40.200Z,15.30
2022-08-20T23:48:07.923Z,15.30
2022-08-20T23:50:35.152Z,15.30
2022-08-20T23:53:04.664Z,15.20
2022-08-20T23:55:31.715Z,15.20
2022-08-20T23:57:58.641Z,15.10
